sensor_id;sensor_type;location;lat;lon;timestamp;pressure;altitude;pressure_sealevel;temperature;humidity
13690;BME280;6917;52.194;9.894;2022-07-29T00:00:56;100623.53;;;15.41;63.34
13690;BME280;6917;52.194;9.894;2022-07-29T00:03:22;100630.06;;;15.36;63.75
13690;BME280;6917;52.194;9.894;2022-07-29T00:05:47;100634.41;;;15.37;63.54
13690;BME280;6917;52.194;9.894;2022-07-29T00:08:12;100633.03;;;15.43;63.66
13690;BME280;6917;52.194;9.894;2022-07-29T00:10:38;100631.09;;;15.44;63.56
13690;BME280;6917;52.194;9.894;2022-07-29T00:13:03;100631.91;;;15.44;63.74
13690;BME280;6917;52.194;9.894;2022-07-29T00:15:29;100630.06;;;15.36;63.60
13690;BME280;6917;52.194;9.894;2022-07-29T00:17:54;100628.19;;;15.28;64.09
13690;BME280;6917;52.194;9.894;2022-07-29T00:20:20;100623.81;;;15.27;64.34
13690;BME280;6917;52.194;9.894;2022-07-29T00:22:45;100622.53;;;15.25;64.42
13690;BME280;6917;52.194;9.894;2022-07-29T00:25:11;100616.47;;;15.31;64.38
13690;BME280;6917;52.194;9.894;2022-07-29T00:27:37;100619.84;;;15.37;64.24
13690;BME280;6917;52.194;9.894;2022-07-29T00:30:04;100611.94;;;15.35;64.31
13690;BME280;6917;52.194;9.894;2022-07-29T00:32:29;100617.03;;;15.25;64.24
13690;BME280;6917;52.194;9.894;2022-07-29T00:34:54;100603.50;;;15.20;64.74
13690;BME280;6917;52.194;9.894;2022-07-29T00:37:38;100598.91;;;15.24;64.49
13690;BME280;6917;52.194;9.894;2022-07-29T00:40:04;100608.03;;;15.36;64.48
13690;BME280;6917;52.194;9.894;2022-07-29T00:42:30;100605.31;;;15.48;64.41
13690;BME280;6917;52.194;9.894;2022-07-29T00:44:55;100604.00;;;15.46;64.00
13690;BME280;6917;52.194;9.894;2022-07-29T00:47:20;100595.25;;;15.32;64.59
13690;BME280;6917;52.194;9.894;2022-07-29T00:49:46;100595.44;;;15.14;65.24
13690;BME280;6917;52.194;9.894;2022-07-29T00:52:12;100591.53;;;15.15;65.26
13690;BME280;6917;52.194;9.894;2022-07-29T00:54:39;100591.94;;;15.26;65.17
13690;BME280;6917;52.194;9.894;2022-07-29T00:57:07;100591.13;;;15.26;65.15
13690;BME280;6917;52.194;9.894;2022-07-29T00:59:35;100584.13;;;15.28;65.35
13690;BME280;6917;52.194;9.894;2022-07-29T01:02:02;100587.59;;;15.37;64.93
13690;BME280;6917;52.194;9.894;2022-07-29T01:04:28;100588.53;;;15.41;64.66
13690;BME280;6917;52.194;9.894;2022-07-29T01:06:55;100582.44;;;15.36;64.73
13690;BME280;6917;52.194;9.894;2022-07-29T01:09:21;100573.75;;;15.13;65.04
13690;BME280;6917;52.194;9.894;2022-07-29T01:11:47;100562.47;;;14.94;65.93
13690;BME280;6917;52.194;9.894;2022-07-29T01:14:14;100569.84;;;14.81;66.36
13690;BME280;6917;52.194;9.894;2022-07-29T01:16:51;100563.09;;;14.78;66.76
13690;BME280;6917;52.194;9.894;2022-07-29T01:27:38;100560.41;;;15.03;67.12
13690;BME280;6917;52.194;9.894;2022-07-29T01:30:06;100544.47;;;14.96;66.98
13690;BME280;6917;52.194;9.894;2022-07-29T01:32:36;100547.94;;;15.05;66.84
13690;BME280;6917;52.194;9.894;2022-07-29T01:35:06;100553.81;;;15.16;66.44
13690;BME280;6917;52.194;9.894;2022-07-29T01:40:32;100553.31;;;15.02;66.60
13690;BME280;6917;52.194;9.894;2022-07-29T01:43:05;100549.34;;;15.11;66.48
13690;BME280;6917;52.194;9.894;2022-07-29T01:45:40;100545.50;;;14.92;66.78
13690;BME280;6917;52.194;9.894;2022-07-29T01:48:21;100552.66;;;14.84;66.84
13690;BME280;6917;52.194;9.894;2022-07-29T01:51:02;100549.84;;;14.72;67.33
13690;BME280;6917;52.194;9.894;2022-07-29T01:53:34;100549.97;;;14.75;67.53
13690;BME280;6917;52.194;9.894;2022-07-29T01:56:02;100543.16;;;14.81;67.60
13690;BME280;6917;52.194;9.894;2022-07-29T01:58:29;100546.50;;;14.66;68.04
13690;BME280;6917;52.194;9.894;2022-07-29T02:00:58;100549.66;;;14.77;68.25
13690;BME280;6917;52.194;9.894;2022-07-29T02:03:25;100542.75;;;14.71;67.92
13690;BME280;6917;52.194;9.894;2022-07-29T02:05:52;100546.84;;;14.65;68.31
13690;BME280;6917;52.194;9.894;2022-07-29T02:08:18;100538.66;;;14.56;68.69
13690;BME280;6917;52.194;9.894;2022-07-29T02:10:46;100533.56;;;14.46;69.13
13690;BME280;6917;52.194;9.894;2022-07-29T02:13:13;100533.31;;;14.30;69.75
13690;BME280;6917;52.194;9.894;2022-07-29T02:15:41;100533.16;;;14.35;70.07
13690;BME280;6917;52.194;9.894;2022-07-29T02:18:10;100530.41;;;14.35;69.76
13690;BME280;6917;52.194;9.894;2022-07-29T02:20:36;100530.81;;;14.46;69.62
13690;BME280;6917;52.194;9.894;2022-07-29T02:23:03;100531.69;;;14.58;69.23
13690;BME280;6917;52.194;9.894;2022-07-29T02:25:29;100519.34;;;14.65;69.07
13690;BME280;6917;52.194;9.894;2022-07-29T02:27:55;100521.34;;;14.55;69.21
13690;BME280;6917;52.194;9.894;2022-07-29T02:30:23;100524.31;;;14.50;69.19
13690;BME280;6917;52.194;9.894;2022-07-29T02:32:49;100529.47;;;14.52;69.25
13690;BME280;6917;52.194;9.894;2022-07-29T02:35:16;100514.94;;;14.51;69.12
13690;BME280;6917;52.194;9.894;2022-07-29T02:37:44;100517.50;;;14.27;69.76
13690;BME280;6917;52.194;9.894;2022-07-29T02:40:12;100515.09;;;14.25;70.31
13690;BME280;6917;52.194;9.894;2022-07-29T02:42:42;100523.00;;;14.27;70.21
13690;BME280;6917;52.194;9.894;2022-07-29T02:45:08;100523.69;;;14.45;70.03
13690;BME280;6917;52.194;9.894;2022-07-29T02:47:42;100519.75;;;14.54;69.56
13690;BME280;6917;52.194;9.894;2022-07-29T02:50:10;100522.16;;;14.56;69.63
13690;BME280;6917;52.194;9.894;2022-07-29T02:52:43;100523.78;;;14.57;69.48
13690;BME280;6917;52.194;9.894;2022-07-29T02:58:13;100518.59;;;14.35;69.73
13690;BME280;6917;52.194;9.894;2022-07-29T03:00:40;100514.09;;;14.30;70.00
13690;BME280;6917;52.194;9.894;2022-07-29T03:03:13;100507.41;;;14.19;70.53
13690;BME280;6917;52.194;9.894;2022-07-29T03:05:40;100508.84;;;14.16;71.17
13690;BME280;6917;52.194;9.894;2022-07-29T03:08:06;100509.13;;;14.23;71.22
13690;BME280;6917;52.194;9.894;2022-07-29T03:10:34;100507.06;;;14.41;70.72
13690;BME280;6917;52.194;9.894;2022-07-29T03:13:00;100503.16;;;14.42;70.61
13690;BME280;6917;52.194;9.894;2022-07-29T03:15:27;100508.28;;;14.52;70.02
13690;BME280;6917;52.194;9.894;2022-07-29T03:17:52;100513.09;;;14.55;69.63
13690;BME280;6917;52.194;9.894;2022-07-29T03:20:19;100510.69;;;14.54;69.58
13690;BME280;6917;52.194;9.894;2022-07-29T03:22:45;100505.25;;;14.45;69.55
13690;BME280;6917;52.194;9.894;2022-07-29T03:25:15;100505.91;;;14.42;69.94
13690;BME280;6917;52.194;9.894;2022-07-29T03:27:41;100507.16;;;14.53;69.71
13690;BME280;6917;52.194;9.894;2022-07-29T03:30:07;100504.94;;;14.47;69.55
13690;BME280;6917;52.194;9.894;2022-07-29T03:32:33;100496.13;;;14.33;69.48
13690;BME280;6917;52.194;9.894;2022-07-29T03:34:58;100500.59;;;14.16;70.18
13690;BME280;6917;52.194;9.894;2022-07-29T03:37:24;100499.88;;;14.07;70.58
13690;BME280;6917;52.194;9.894;2022-07-29T03:39:50;100498.25;;;14.06;71.10
13690;BME280;6917;52.194;9.894;2022-07-29T03:42:19;100499.66;;;14.12;71.21
13690;BME280;6917;52.194;9.894;2022-07-29T03:44:47;100496.72;;;14.17;71.16
13690;BME280;6917;52.194;9.894;2022-07-29T03:47:14;100498.72;;;14.29;71.11
13690;BME280;6917;52.194;9.894;2022-07-29T03:49:40;100503.03;;;14.18;70.88
13690;BME280;6917;52.194;9.894;2022-07-29T03:52:07;100510.19;;;14.10;71.33
13690;BME280;6917;52.194;9.894;2022-07-29T03:54:33;100500.88;;;14.23;71.21
13690;BME280;6917;52.194;9.894;2022-07-29T03:57:01;100502.41;;;14.12;71.17
13690;BME280;6917;52.194;9.894;2022-07-29T03:59:27;100498.91;;;14.03;71.28
13690;BME280;6917;52.194;9.894;2022-07-29T04:01:53;100499.09;;;13.98;71.75
13690;BME280;6917;52.194;9.894;2022-07-29T04:04:21;100496.28;;;13.86;72.30
13690;BME280;6917;52.194;9.894;2022-07-29T04:06:46;100494.53;;;13.81;72.94
13690;BME280;6917;52.194;9.894;2022-07-29T04:09:12;100500.63;;;13.87;72.92
13690;BME280;6917;52.194;9.894;2022-07-29T04:11:41;100499.31;;;13.93;72.70
13690;BME280;6917;52.194;9.894;2022-07-29T04:14:06;100508.28;;;14.02;72.96
13690;BME280;6917;52.194;9.894;2022-07-29T04:16:32;100508.13;;;14.07;72.48
13690;BME280;6917;52.194;9.894;2022-07-29T04:18:58;100511.31;;;14.09;72.02
13690;BME280;6917;52.194;9.894;2022-07-29T04:21:23;100504.75;;;14.02;71.93
13690;BME280;6917;52.194;9.894;2022-07-29T04:23:49;100508.16;;;13.98;72.14
13690;BME280;6917;52.194;9.894;2022-07-29T04:26:18;100505.63;;;13.93;72.57
13690;BME280;6917;52.194;9.894;2022-07-29T04:28:45;100499.97;;;13.90;73.11
13690;BME280;6917;52.194;9.894;2022-07-29T04:31:11;100504.66;;;13.89;73.11
13690;BME280;6917;52.194;9.894;2022-07-29T04:33:37;100510.06;;;14.07;72.95
13690;BME280;6917;52.194;9.894;2022-07-29T04:36:02;100506.50;;;14.06;72.44
13690;BME280;6917;52.194;9.894;2022-07-29T04:38:28;100512.50;;;13.99;72.75
13690;BME280;6917;52.194;9.894;2022-07-29T04:40:53;100509.28;;;13.97;72.93
13690;BME280;6917;52.194;9.894;2022-07-29T04:43:18;100507.56;;;13.93;73.39
13690;BME280;6917;52.194;9.894;2022-07-29T04:45:44;100506.22;;;13.99;73.48
13690;BME280;6917;52.194;9.894;2022-07-29T04:48:09;100515.88;;;14.05;73.15
13690;BME280;6917;52.194;9.894;2022-07-29T04:50:38;100520.56;;;14.05;73.04
13690;BME280;6917;52.194;9.894;2022-07-29T04:53:03;100529.69;;;14.17;72.59
13690;BME280;6917;52.194;9.894;2022-07-29T04:55:28;100519.91;;;14.28;72.43
13690;BME280;6917;52.194;9.894;2022-07-29T04:57:54;100524.94;;;14.26;72.22
13690;BME280;6917;52.194;9.894;2022-07-29T05:00:19;100525.50;;;14.41;71.97
13690;BME280;6917;52.194;9.894;2022-07-29T05:02:45;100530.16;;;14.49;71.59
13690;BME280;6917;52.194;9.894;2022-07-29T05:05:10;100532.81;;;14.57;71.40
13690;BME280;6917;52.194;9.894;2022-07-29T05:07:35;100526.06;;;14.55;71.00
13690;BME280;6917;52.194;9.894;2022-07-29T05:10:01;100522.16;;;14.35;70.99
13690;BME280;6917;52.194;9.894;2022-07-29T05:12:26;100525.03;;;14.39;71.26
13690;BME280;6917;52.194;9.894;2022-07-29T05:14:52;100521.84;;;14.28;71.73
13690;BME280;6917;52.194;9.894;2022-07-29T05:17:18;100524.44;;;14.33;71.90
13690;BME280;6917;52.194;9.894;2022-07-29T05:19:44;100520.38;;;14.30;71.92
13690;BME280;6917;52.194;9.894;2022-07-29T05:22:09;100530.34;;;14.44;72.04
13690;BME280;6917;52.194;9.894;2022-07-29T05:24:35;100532.91;;;14.49;72.27
13690;BME280;6917;52.194;9.894;2022-07-29T05:27:00;100528.88;;;14.67;72.05
13690;BME280;6917;52.194;9.894;2022-07-29T05:29:25;100536.84;;;14.81;71.51
13690;BME280;6917;52.194;9.894;2022-07-29T05:31:51;100535.91;;;14.77;71.27
13690;BME280;6917;52.194;9.894;2022-07-29T05:34:18;100529.84;;;14.83;71.09
13690;BME280;6917;52.194;9.894;2022-07-29T05:36:44;100519.94;;;14.70;70.86
13690;BME280;6917;52.194;9.894;2022-07-29T05:39:10;100526.13;;;14.67;71.14
13690;BME280;6917;52.194;9.894;2022-07-29T05:41:36;100522.47;;;14.75;71.35
13690;BME280;6917;52.194;9.894;2022-07-29T05:44:01;100516.91;;;14.84;70.96
13690;BME280;6917;52.194;9.894;2022-07-29T05:46:27;100520.38;;;14.93;70.65
13690;BME280;6917;52.194;9.894;2022-07-29T05:48:53;100514.25;;;15.08;70.95
13690;BME280;6917;52.194;9.894;2022-07-29T05:51:19;100520.22;;;15.10;70.49
13690;BME280;6917;52.194;9.894;2022-07-29T05:53:44;100520.28;;;15.02;70.13
13690;BME280;6917;52.194;9.894;2022-07-29T05:56:10;100526.41;;;15.07;69.92
13690;BME280;6917;52.194;9.894;2022-07-29T05:58:35;100524.28;;;15.04;69.50
13690;BME280;6917;52.194;9.894;2022-07-29T06:01:01;100522.97;;;15.10;69.93
13690;BME280;6917;52.194;9.894;2022-07-29T06:03:26;100523.88;;;15.14;69.57
13690;BME280;6917;52.194;9.894;2022-07-29T06:05:52;100526.97;;;15.13;69.53
13690;BME280;6917;52.194;9.894;2022-07-29T06:08:18;100529.03;;;15.16;69.85
13690;BME280;6917;52.194;9.894;2022-07-29T06:10:43;100532.69;;;15.08;69.68
13690;BME280;6917;52.194;9.894;2022-07-29T06:13:09;100533.66;;;15.24;69.83
13690;BME280;6917;52.194;9.894;2022-07-29T06:15:34;100529.06;;;15.28;69.89
13690;BME280;6917;52.194;9.894;2022-07-29T06:18:00;100530.31;;;15.18;69.62
13690;BME280;6917;52.194;9.894;2022-07-29T06:20:26;100532.50;;;15.25;69.75
13690;BME280;6917;52.194;9.894;2022-07-29T06:22:54;100528.31;;;15.52;69.33
13690;BME280;6917;52.194;9.894;2022-07-29T06:25:20;100531.56;;;15.66;68.22
13690;BME280;6917;52.194;9.894;2022-07-29T06:27:45;100530.91;;;15.82;68.59
13690;BME280;6917;52.194;9.894;2022-07-29T06:30:11;100533.84;;;15.76;68.37
13690;BME280;6917;52.194;9.894;2022-07-29T06:32:36;100533.19;;;15.80;68.04
13690;BME280;6917;52.194;9.894;2022-07-29T06:35:02;100533.06;;;15.76;68.07
13690;BME280;6917;52.194;9.894;2022-07-29T06:37:27;100539.63;;;15.84;67.42
13690;BME280;6917;52.194;9.894;2022-07-29T06:39:52;100527.78;;;15.83;68.18
13690;BME280;6917;52.194;9.894;2022-07-29T06:42:42;100531.34;;;15.96;67.90
13690;BME280;6917;52.194;9.894;2022-07-29T06:45:08;100539.38;;;16.13;68.24
13690;BME280;6917;52.194;9.894;2022-07-29T06:47:33;100545.34;;;16.15;66.79
13690;BME280;6917;52.194;9.894;2022-07-29T06:49:59;100538.66;;;16.16;67.89
13690;BME280;6917;52.194;9.894;2022-07-29T06:52:24;100533.06;;;16.13;67.26
13690;BME280;6917;52.194;9.894;2022-07-29T06:54:50;100524.31;;;16.35;67.56
13690;BME280;6917;52.194;9.894;2022-07-29T06:57:15;100534.34;;;16.68;67.55
13690;BME280;6917;52.194;9.894;2022-07-29T06:59:41;100529.16;;;16.66;66.30
13690;BME280;6917;52.194;9.894;2022-07-29T07:02:06;100528.34;;;16.65;65.77
13690;BME280;6917;52.194;9.894;2022-07-29T07:04:31;100521.78;;;16.70;65.90
13690;BME280;6917;52.194;9.894;2022-07-29T07:06:57;100520.75;;;16.75;65.78
13690;BME280;6917;52.194;9.894;2022-07-29T07:09:23;100520.97;;;16.82;65.12
13690;BME280;6917;52.194;9.894;2022-07-29T07:11:48;100522.97;;;16.97;65.15
13690;BME280;6917;52.194;9.894;2022-07-29T07:14:13;100527.63;;;17.09;64.87
13690;BME280;6917;52.194;9.894;2022-07-29T07:16:39;100516.75;;;17.16;64.63
13690;BME280;6917;52.194;9.894;2022-07-29T07:19:04;100520.41;;;17.20;64.63
13690;BME280;6917;52.194;9.894;2022-07-29T07:21:29;100518.63;;;17.28;64.51
13690;BME280;6917;52.194;9.894;2022-07-29T07:23:55;100519.53;;;17.32;64.81
13690;BME280;6917;52.194;9.894;2022-07-29T07:26:20;100521.94;;;17.33;64.10
13690;BME280;6917;52.194;9.894;2022-07-29T07:28:45;100528.81;;;17.39;64.39
13690;BME280;6917;52.194;9.894;2022-07-29T07:31:11;100524.00;;;17.52;64.21
13690;BME280;6917;52.194;9.894;2022-07-29T07:33:37;100526.09;;;17.71;63.72
13690;BME280;6917;52.194;9.894;2022-07-29T07:36:02;100538.75;;;17.72;62.52
13690;BME280;6917;52.194;9.894;2022-07-29T07:38:27;100542.13;;;17.81;61.89
13690;BME280;6917;52.194;9.894;2022-07-29T07:40:53;100538.47;;;17.77;61.68
13690;BME280;6917;52.194;9.894;2022-07-29T07:43:18;100544.72;;;17.74;61.75
13690;BME280;6917;52.194;9.894;2022-07-29T07:45:43;100545.06;;;17.88;62.81
13690;BME280;6917;52.194;9.894;2022-07-29T07:48:09;100541.91;;;18.05;62.11
13690;BME280;6917;52.194;9.894;2022-07-29T07:50:36;100539.75;;;18.14;61.38
13690;BME280;6917;52.194;9.894;2022-07-29T07:53:01;100538.78;;;18.07;60.79
13690;BME280;6917;52.194;9.894;2022-07-29T07:55:27;100533.97;;;18.04;60.45
13690;BME280;6917;52.194;9.894;2022-07-29T07:57:53;100531.41;;;18.30;61.66
13690;BME280;6917;52.194;9.894;2022-07-29T08:00:19;100530.75;;;18.37;60.48
13690;BME280;6917;52.194;9.894;2022-07-29T08:02:44;100532.69;;;18.52;59.90
13690;BME280;6917;52.194;9.894;2022-07-29T08:05:10;100535.00;;;18.50;59.74
13690;BME280;6917;52.194;9.894;2022-07-29T08:07:37;100535.16;;;18.57;60.04
13690;BME280;6917;52.194;9.894;2022-07-29T08:10:02;100538.63;;;18.70;59.83
13690;BME280;6917;52.194;9.894;2022-07-29T08:12:28;100531.31;;;18.62;59.16
13690;BME280;6917;52.194;9.894;2022-07-29T08:14:53;100532.41;;;18.57;59.76
13690;BME280;6917;52.194;9.894;2022-07-29T08:17:19;100526.44;;;18.55;60.13
13690;BME280;6917;52.194;9.894;2022-07-29T08:19:44;100534.06;;;18.62;59.73
13690;BME280;6917;52.194;9.894;2022-07-29T08:22:10;100534.41;;;18.76;60.10
13690;BME280;6917;52.194;9.894;2022-07-29T08:24:35;100535.50;;;18.71;59.93
13690;BME280;6917;52.194;9.894;2022-07-29T08:27:33;100547.00;;;18.73;59.67
13690;BME280;6917;52.194;9.894;2022-07-29T08:29:58;100541.84;;;18.72;59.69
13690;BME280;6917;52.194;9.894;2022-07-29T08:32:24;100544.03;;;18.82;60.15
13690;BME280;6917;52.194;9.894;2022-07-29T08:34:49;100546.19;;;18.92;59.98
13690;BME280;6917;52.194;9.894;2022-07-29T08:37:15;100552.31;;;19.01;59.92
13690;BME280;6917;52.194;9.894;2022-07-29T08:39:40;100552.31;;;19.01;59.23
13690;BME280;6917;52.194;9.894;2022-07-29T08:42:06;100551.31;;;19.10;59.76
13690;BME280;6917;52.194;9.894;2022-07-29T08:44:32;100551.94;;;19.03;58.71
13690;BME280;6917;52.194;9.894;2022-07-29T08:46:58;100549.41;;;19.14;58.83
13690;BME280;6917;52.194;9.894;2022-07-29T08:49:23;100552.22;;;19.17;58.60
13690;BME280;6917;52.194;9.894;2022-07-29T08:51:49;100557.19;;;19.27;58.34
13690;BME280;6917;52.194;9.894;2022-07-29T08:54:17;100543.94;;;19.40;57.86
13690;BME280;6917;52.194;9.894;2022-07-29T08:56:43;100546.63;;;19.56;57.90
13690;BME280;6917;52.194;9.894;2022-07-29T08:59:10;100549.13;;;19.65;57.45
13690;BME280;6917;52.194;9.894;2022-07-29T09:01:37;100547.59;;;19.67;56.96
13690;BME280;6917;52.194;9.894;2022-07-29T09:04:07;100555.09;;;19.89;57.08
13690;BME280;6917;52.194;9.894;2022-07-29T09:06:37;100549.06;;;20.10;56.68
13690;BME280;6917;52.194;9.894;2022-07-29T09:09:03;100552.81;;;20.21;55.47
13690;BME280;6917;52.194;9.894;2022-07-29T09:11:29;100552.22;;;20.35;55.77
13690;BME280;6917;52.194;9.894;2022-07-29T09:13:57;100551.56;;;20.42;55.29
13690;BME280;6917;52.194;9.894;2022-07-29T09:16:22;100541.72;;;20.48;54.87
13690;BME280;6917;52.194;9.894;2022-07-29T09:18:47;100542.06;;;20.43;54.62
13690;BME280;6917;52.194;9.894;2022-07-29T09:21:15;100546.34;;;20.67;55.13
13690;BME280;6917;52.194;9.894;2022-07-29T09:24:06;100541.44;;;20.87;55.09
13690;BME280;6917;52.194;9.894;2022-07-29T09:26:54;100542.25;;;20.87;54.07
13690;BME280;6917;52.194;9.894;2022-07-29T09:29:22;100540.16;;;20.80;54.25
13690;BME280;6917;52.194;9.894;2022-07-29T09:31:51;100540.25;;;20.88;54.14
13690;BME280;6917;52.194;9.894;2022-07-29T09:34:22;100547.78;;;20.87;53.99
13690;BME280;6917;52.194;9.894;2022-07-29T09:36:49;100539.91;;;20.93;53.75
13690;BME280;6917;52.194;9.894;2022-07-29T09:39:27;100534.53;;;21.10;52.94
13690;BME280;6917;52.194;9.894;2022-07-29T09:41:55;100536.25;;;21.22;53.01
13690;BME280;6917;52.194;9.894;2022-07-29T09:44:22;100534.84;;;21.35;53.13
13690;BME280;6917;52.194;9.894;2022-07-29T09:47:02;100523.84;;;21.46;52.80
13690;BME280;6917;52.194;9.894;2022-07-29T09:49:32;100519.72;;;21.33;52.89
13690;BME280;6917;52.194;9.894;2022-07-29T09:52:04;100536.47;;;21.40;52.64
13690;BME280;6917;52.194;9.894;2022-07-29T09:54:30;100525.81;;;21.46;52.96
13690;BME280;6917;52.194;9.894;2022-07-29T09:57:02;100524.22;;;21.45;52.37
13690;BME280;6917;52.194;9.894;2022-07-29T09:59:28;100519.91;;;21.54;52.69
13690;BME280;6917;52.194;9.894;2022-07-29T10:01:54;100518.78;;;21.59;52.71
13690;BME280;6917;52.194;9.894;2022-07-29T10:04:19;100515.31;;;21.73;52.10
13690;BME280;6917;52.194;9.894;2022-07-29T10:07:01;100519.25;;;21.68;51.93
13690;BME280;6917;52.194;9.894;2022-07-29T10:09:28;100507.38;;;21.75;51.49
13690;BME280;6917;52.194;9.894;2022-07-29T10:12:11;100509.88;;;21.87;51.99
13690;BME280;6917;52.194;9.894;2022-07-29T10:14:39;100515.13;;;21.99;51.34
13690;BME280;6917;52.194;9.894;2022-07-29T10:17:06;100515.22;;;22.10;51.21
13690;BME280;6917;52.194;9.894;2022-07-29T10:19:33;100516.84;;;22.14;50.95
13690;BME280;6917;52.194;9.894;2022-07-29T10:21:59;100514.19;;;22.39;51.49
13690;BME280;6917;52.194;9.894;2022-07-29T10:24:30;100509.34;;;22.25;50.41
13690;BME280;6917;52.194;9.894;2022-07-29T10:26:56;100499.84;;;22.37;50.61
13690;BME280;6917;52.194;9.894;2022-07-29T10:29:23;100503.91;;;22.47;51.05
13690;BME280;6917;52.194;9.894;2022-07-29T10:40:00;100509.00;;;22.38;50.35
13690;BME280;6917;52.194;9.894;2022-07-29T10:42:49;100503.44;;;22.38;50.63
13690;BME280;6917;52.194;9.894;2022-07-29T10:45:17;100505.50;;;22.48;50.26
13690;BME280;6917;52.194;9.894;2022-07-29T10:47:42;100509.53;;;22.61;50.55
13690;BME280;6917;52.194;9.894;2022-07-29T10:50:08;100501.09;;;22.47;49.92
13690;BME280;6917;52.194;9.894;2022-07-29T10:52:53;100512.66;;;22.52;50.38
13690;BME280;6917;52.194;9.894;2022-07-29T10:55:38;100500.72;;;22.48;49.92
13690;BME280;6917;52.194;9.894;2022-07-29T10:58:14;100499.13;;;22.47;50.73
13690;BME280;6917;52.194;9.894;2022-07-29T11:00:40;100505.91;;;22.53;51.13
13690;BME280;6917;52.194;9.894;2022-07-29T11:03:05;100497.50;;;22.43;50.12
13690;BME280;6917;52.194;9.894;2022-07-29T11:05:51;100503.50;;;22.48;50.61
13690;BME280;6917;52.194;9.894;2022-07-29T11:08:19;100502.31;;;22.56;50.23
13690;BME280;6917;52.194;9.894;2022-07-29T11:10:49;100505.09;;;22.53;50.14
13690;BME280;6917;52.194;9.894;2022-07-29T11:16:08;100502.28;;;22.42;50.47
13690;BME280;6917;52.194;9.894;2022-07-29T11:18:33;100499.06;;;22.40;50.61
13690;BME280;6917;52.194;9.894;2022-07-29T11:20:58;100499.91;;;22.44;50.88
13690;BME280;6917;52.194;9.894;2022-07-29T11:23:30;100500.78;;;22.59;50.89
13690;BME280;6917;52.194;9.894;2022-07-29T11:29:08;100496.75;;;22.53;50.37
13690;BME280;6917;52.194;9.894;2022-07-29T11:31:44;100492.00;;;22.57;50.80
13690;BME280;6917;52.194;9.894;2022-07-29T11:39:37;100496.34;;;22.51;49.89
13690;BME280;6917;52.194;9.894;2022-07-29T11:47:22;100494.41;;;22.66;50.58
13690;BME280;6917;52.194;9.894;2022-07-29T11:49:48;100489.28;;;22.71;50.89
13690;BME280;6917;52.194;9.894;2022-07-29T11:52:16;100494.03;;;22.71;50.04
13690;BME280;6917;52.194;9.894;2022-07-29T11:54:42;100490.84;;;22.69;49.73
13690;BME280;6917;52.194;9.894;2022-07-29T11:57:09;100484.50;;;22.79;49.65
13690;BME280;6917;52.194;9.894;2022-07-29T11:59:41;100481.31;;;22.77;50.12
13690;BME280;6917;52.194;9.894;2022-07-29T12:02:08;100484.19;;;22.88;49.86
13690;BME280;6917;52.194;9.894;2022-07-29T12:04:34;100483.38;;;22.94;49.57
13690;BME280;6917;52.194;9.894;2022-07-29T12:06:59;100487.81;;;23.02;49.43
13690;BME280;6917;52.194;9.894;2022-07-29T12:09:25;100483.41;;;23.05;49.75
13690;BME280;6917;52.194;9.894;2022-07-29T12:11:56;100482.63;;;23.08;50.30
13690;BME280;6917;52.194;9.894;2022-07-29T12:14:29;100473.88;;;23.24;49.33
13690;BME280;6917;52.194;9.894;2022-07-29T12:16:56;100486.25;;;23.37;49.30
13690;BME280;6917;52.194;9.894;2022-07-29T12:19:21;100481.06;;;23.53;49.40
13690;BME280;6917;52.194;9.894;2022-07-29T12:21:51;100480.69;;;23.44;49.05
13690;BME280;6917;52.194;9.894;2022-07-29T12:24:18;100473.50;;;23.43;48.77
13690;BME280;6917;52.194;9.894;2022-07-29T12:27:10;100472.31;;;23.51;48.47
13690;BME280;6917;52.194;9.894;2022-07-29T12:29:36;100470.34;;;23.66;48.75
13690;BME280;6917;52.194;9.894;2022-07-29T12:32:02;100466.38;;;23.60;48.53
13690;BME280;6917;52.194;9.894;2022-07-29T12:34:28;100477.91;;;23.65;48.57
13690;BME280;6917;52.194;9.894;2022-07-29T12:36:54;100475.91;;;23.66;48.14
13690;BME280;6917;52.194;9.894;2022-07-29T12:39:20;100473.94;;;23.59;48.12
13690;BME280;6917;52.194;9.894;2022-07-29T12:41:46;100470.34;;;23.62;47.78
13690;BME280;6917;52.194;9.894;2022-07-29T12:44:11;100470.72;;;23.57;48.26
13690;BME280;6917;52.194;9.894;2022-07-29T12:46:37;100470.34;;;23.73;48.47
13690;BME280;6917;52.194;9.894;2022-07-29T12:49:03;100471.13;;;23.77;48.01
13690;BME280;6917;52.194;9.894;2022-07-29T12:54:17;100470.31;;;23.94;47.74
13690;BME280;6917;52.194;9.894;2022-07-29T12:56:44;100463.13;;;23.83;47.91
13690;BME280;6917;52.194;9.894;2022-07-29T12:59:17;100464.31;;;23.92;48.11
13690;BME280;6917;52.194;9.894;2022-07-29T13:01:42;100462.31;;;23.96;48.20
13690;BME280;6917;52.194;9.894;2022-07-29T13:04:08;100457.50;;;24.00;48.25
13690;BME280;6917;52.194;9.894;2022-07-29T13:06:42;100454.69;;;24.11;47.63
13690;BME280;6917;52.194;9.894;2022-07-29T13:09:16;100447.47;;;24.24;47.57
13690;BME280;6917;52.194;9.894;2022-07-29T13:11:44;100447.50;;;24.21;46.98
13690;BME280;6917;52.194;9.894;2022-07-29T13:14:11;100450.31;;;24.17;46.76
13690;BME280;6917;52.194;9.894;2022-07-29T13:19:35;100440.31;;;24.20;46.99
13690;BME280;6917;52.194;9.894;2022-07-29T13:22:01;100449.13;;;24.11;47.77
13690;BME280;6917;52.194;9.894;2022-07-29T13:24:26;100447.50;;;24.14;47.25
13690;BME280;6917;52.194;9.894;2022-07-29T13:26:51;100439.91;;;24.21;47.01
13690;BME280;6917;52.194;9.894;2022-07-29T13:29:17;100437.13;;;24.21;46.98
13690;BME280;6917;52.194;9.894;2022-07-29T13:31:43;100432.75;;;24.31;46.81
13690;BME280;6917;52.194;9.894;2022-07-29T13:34:08;100445.84;;;24.41;46.61
13690;BME280;6917;52.194;9.894;2022-07-29T13:36:33;100437.09;;;24.36;46.40
13690;BME280;6917;52.194;9.894;2022-07-29T13:38:59;100426.72;;;24.29;46.19
13690;BME280;6917;52.194;9.894;2022-07-29T13:41:26;100432.34;;;24.32;46.14
13690;BME280;6917;52.194;9.894;2022-07-29T13:43:51;100422.72;;;24.41;45.91
13690;BME280;6917;52.194;9.894;2022-07-29T13:46:16;100424.66;;;24.51;45.27